Latest Weather Observations for Bedout Island

IDW60801

Issued at 1:32 pm WST Wednesday 27 May 2015 (issued every 30 minutes, with the page automatically refreshed every 10 minutes)

About weather observations | Map of weather stations | Latest weather observations for WA | Other Formats
Station Details ID: 004100 Name: BEDOUT ISLAND Lat: -19.59 Lon: 119.10 Height: 8.6 m
Data from the previous 72 hours. | See also: Recent months for locations in Western Australia
Date/Time
WST
Temp
°C
App
Temp
°C
Dew
Point
Rel
Hum
%
Delta-T
°C
Wind Press
QNH
hPa
Press
MSL
hPa
Rain
since 9 am
mm
Dir
 
Spd
km/h
Gust
km/h
Spd
kts
Gust
kts
27/01:30pm 26.4 24.9 20.3 69 4.0 E 28 30 15 16 1012.4 - -
27/01:00pm 26.2 24.7 20.3 70 3.9 E 28 30 15 16 1012.7 - -
27/12:30pm 26.4 25.8 20.5 70 3.9 E 24 28 13 15 1013.4 - -
27/12:00pm 25.8 24.5 19.9 70 3.8 E 26 30 14 16 1013.8 1013.7 -
27/11:30am 25.9 24.4 20.2 71 3.7 E 28 32 15 17 1014.0 - -
27/11:00am 25.1 23.4 19.9 73 3.4 E 28 33 15 18 1014.3 - -
27/10:30am 25.6 23.8 20.4 73 3.4 E 30 33 16 18 1014.7 - -
27/10:00am 25.0 23.0 20.0 74 3.2 E 30 35 16 19 1015.1 - -
27/09:30am 24.7 22.8 20.2 76 2.9 E 30 33 16 18 1015.4 - -
27/09:00am 24.6 23.1 20.3 77 2.8 E 28 30 15 16 1015.7 1015.6 -
27/08:30am 24.4 23.2 20.1 77 2.8 E 26 30 14 16 1015.9 - -
27/08:00am 23.8 22.1 19.7 78 2.6 E 28 32 15 17 1015.7 - -
27/07:30am 23.3 22.3 19.7 80 2.3 ESE 24 26 13 14 1015.4 - -
27/07:00am 22.6 21.0 19.2 81 2.2 ESE 26 30 14 16 1015.2 - -
27/06:30am 22.4 20.0 19.0 81 2.2 ESE 30 33 16 18 1014.9 - -
27/06:00am 22.1 20.1 19.1 83 1.9 SE 28 32 15 17 1014.7 1014.6 -
27/05:30am 22.0 20.2 19.5 86 1.6 ESE 28 32 15 17 1014.8 - -
27/05:00am 21.8 20.1 19.7 88 1.3 SE 28 30 15 16 1015.0 - -
27/04:30am 22.3 22.7 19.8 86 1.6 E 17 22 9 12 1015.2 - -
27/04:00am 22.7 21.5 20.8 89 1.2 ESE 28 30 15 16 1014.8 - -
27/03:30am 21.9 21.3 19.8 88 1.3 ESE 22 30 12 16 1014.8 - -
27/03:00am 22.2 21.0 19.2 83 1.9 ENE 24 30 13 16 1015.0 1014.9 -
27/02:30am 24.4 23.6 19.2 73 3.3 E 22 24 12 13 1014.7 - -
27/02:00am 25.0 24.4 18.9 69 3.9 E 20 24 11 13 1015.1 - -
27/01:30am 24.7 23.7 18.9 70 3.7 E 22 24 12 13 1015.1 - -
27/01:00am 24.5 23.1 18.9 71 3.6 E 24 26 13 14 1015.2 - -
27/12:30am 24.5 23.1 18.9 71 3.6 E 24 28 13 15 1015.7 - -
27/12:00am 24.4 24.1 19.5 74 3.1 ESE 20 24 11 13 1016.0 1015.9 -
 
Date/Time
WST
Temp
°C
App
Temp
°C
Dew
Point
Rel
Hum
%
Delta-T
°C
Wind Press
QNH
hPa
Press
MSL
hPa
Rain
since 9 am
mm
Dir
 
Spd
km/h
Gust
km/h
Spd
kts
Gust
kts
26/11:30pm 24.3 23.6 19.6 75 3.0 ESE 22 24 12 13 1016.1 - -
26/11:00pm 24.2 23.3 19.9 77 2.8 ESE 24 26 13 14 1016.5 - -
26/10:30pm 24.0 23.6 20.1 79 2.5 ESE 22 24 12 13 1016.8 - -
26/10:00pm 23.8 23.5 20.3 81 2.3 ESE 22 24 12 13 1017.0 - -
26/09:30pm 23.7 23.7 21.0 85 1.8 ESE 22 26 12 14 1017.0 - -
26/09:00pm 23.4 23.5 21.1 87 1.5 ESE 22 24 12 13 1017.1 1017.0 -
26/08:30pm 23.4 24.0 21.3 88 1.4 ESE 20 24 11 13 1016.9 - -
26/08:00pm 23.8 24.0 21.3 86 1.6 ESE 22 24 12 13 1016.8 - -
26/07:30pm 24.9 25.7 21.4 81 2.3 ESE 19 20 10 11 1016.4 - -
26/07:00pm 25.0 26.6 21.5 81 2.3 NNE 15 17 8 9 1016.0 - -
26/06:30pm 24.8 26.2 21.1 80 2.4 NNE 15 17 8 9 1015.6 - -
26/06:00pm 25.0 25.8 21.3 80 2.4 NE 19 22 10 12 1015.2 1015.1 -
26/05:30pm 24.9 25.4 21.2 80 2.4 NE 20 22 11 12 1014.9 - -
26/05:00pm 25.0 24.5 20.7 77 2.8 NE 24 28 13 15 1014.7 - -
26/04:30pm 25.3 24.9 21.0 77 2.8 NE 24 26 13 14 1014.6 - -
26/04:00pm 25.4 24.5 20.6 75 3.1 NE 26 30 14 16 1014.4 - -
26/03:30pm 25.9 23.8 20.5 72 3.5 NE 32 35 17 19 1014.4 - -
26/03:00pm 26.1 25.1 21.3 75 3.2 NE 28 33 15 18 1014.5 1014.4 -
26/02:30pm 25.7 24.3 22.0 80 2.5 NE 32 35 17 19 1014.6 - -
26/02:00pm 25.1 23.0 21.6 81 2.3 NE 35 43 19 23 1014.6 - -
26/01:30pm 25.8 23.7 21.7 78 2.7 NE 35 41 19 22 1015.0 - -
26/01:00pm 25.7 22.9 21.1 76 3.0 NE 37 44 20 24 1015.1 - -
26/12:30pm 25.3 22.1 20.3 74 3.3 NE 37 43 20 23 1015.4 - -
26/12:00pm 25.1 22.9 20.4 75 3.1 ENE 32 35 17 19 1015.7 1015.6 -
26/11:30am 24.5 22.0 19.8 75 3.0 ENE 32 35 17 19 1016.1 - -
26/11:00am 24.8 20.9 19.6 73 3.3 ENE 39 46 21 25 1016.6 - -
26/10:30am 25.4 21.2 20.6 75 3.1 NE 43 52 23 28 1016.8 - -
26/10:00am 26.0 22.6 20.6 72 3.5 ENE 39 44 21 24 1017.0 - -
26/09:55am 25.9 22.5 20.7 73 3.4 NE 39 44 21 24 1017.1 - -
26/09:30am 24.8 21.5 19.2 71 3.6 E 35 43 19 23 1017.0 - -
26/09:00am 24.4 22.6 20.3 78 2.7 E 30 33 16 18 1016.9 1016.8 -
26/08:30am 24.3 21.7 20.0 77 2.8 E 33 39 18 21 1016.7 - -
26/08:00am 23.2 19.8 18.9 77 2.7 E 35 39 19 21 1016.9 - -
26/07:30am 23.6 20.2 19.1 76 2.9 E 35 41 19 22 1016.5 - -
26/07:00am 23.5 19.3 18.8 75 3.0 E 39 43 21 23 1015.8 - -
26/06:30am 23.7 19.8 18.8 74 3.1 E 37 43 20 23 1016.0 - -
26/06:00am 23.5 19.5 18.6 74 3.1 E 37 41 20 22 1015.8 1015.7 -
26/05:30am 23.5 20.5 19.0 76 2.9 E 33 39 18 21 1015.2 - -
26/05:00am 23.6 21.2 20.3 82 2.1 E 33 39 18 21 1014.8 - -
26/04:30am 23.8 21.6 20.3 81 2.3 E 32 35 17 19 1014.8 - -
26/04:00am 23.6 21.3 20.5 83 2.0 E 33 37 18 20 1014.6 - -
26/03:30am 23.6 21.4 20.3 82 2.1 E 32 35 17 19 1014.8 - -
26/03:00am 23.4 20.5 20.0 81 2.2 E 35 41 19 22 1014.9 1014.8 -
26/02:30am 23.0 20.5 19.8 82 2.1 E 32 37 17 20 1015.2 - -
26/02:00am 22.7 19.5 19.5 82 2.0 E 35 39 19 21 1015.3 - -
26/01:30am 22.7 20.1 19.9 84 1.8 E 33 37 18 20 1015.6 - -
26/01:00am 22.3 19.4 20.0 87 1.5 E 35 41 19 22 1015.8 - -
26/12:30am 22.1 19.5 20.0 88 1.3 ESE 33 39 18 21 1016.2 - -
26/12:00am 21.3 19.6 18.9 86 1.5 ESE 26 30 14 16 1016.3 1016.2 -
 
Date/Time
WST
Temp
°C
App
Temp
°C
Dew
Point
Rel
Hum
%
Delta-T
°C
Wind Press
QNH
hPa
Press
MSL
hPa
Rain
since 9 am
mm
Dir
 
Spd
km/h
Gust
km/h
Spd
kts
Gust
kts
25/11:30pm 21.6 18.2 17.8 79 2.4 ESE 32 35 17 19 1016.4 - -
25/11:00pm 23.3 20.2 18.4 74 3.1 ESE 32 37 17 20 1016.4 - -
25/10:30pm 22.9 19.4 17.8 73 3.2 ESE 33 37 18 20 1016.6 - -
25/10:00pm 23.0 19.0 17.7 72 3.3 ESE 35 39 19 21 1016.5 - -
25/09:30pm 23.2 19.2 17.6 71 3.5 ESE 35 43 19 23 1016.4 - -
25/09:00pm 23.4 19.5 17.8 71 3.5 ESE 35 39 19 21 1016.5 1016.4 -
25/08:30pm 23.5 19.5 17.7 70 3.6 ESE 35 41 19 22 1016.3 - -
25/08:00pm 23.6 20.1 18.0 71 3.5 ESE 33 39 18 21 1016.2 - -
25/07:30pm 23.6 20.3 18.3 72 3.3 ESE 33 37 18 20 1015.8 - -
25/07:00pm 23.7 20.5 18.1 71 3.5 ESE 32 35 17 19 1015.5 - -
25/06:30pm 23.5 20.7 18.2 72 3.3 ESE 30 33 16 18 1015.1 - -
25/06:00pm 23.6 21.2 18.3 72 3.3 E 28 32 15 17 1015.0 1014.9 -
25/05:30pm 23.7 21.2 18.1 71 3.5 E 28 33 15 18 1014.9 - -
25/05:00pm 23.6 20.1 18.0 71 3.5 E 33 37 18 20 1014.3 - -
25/04:30pm 23.4 19.8 17.6 70 3.6 E 33 39 18 21 1014.2 - -
25/04:00pm 23.2 19.5 17.4 70 3.6 E 33 37 18 20 1014.1 - -
25/03:30pm 23.2 18.2 17.9 72 3.3 E 41 48 22 26 1013.5 - -
25/03:00pm 22.7 17.1 17.4 72 3.3 E 43 50 23 27 1013.4 1013.3 -
25/02:30pm 22.6 17.8 17.5 73 3.2 E 39 44 21 24 1013.9 - -
25/02:00pm 22.3 17.6 17.7 75 2.9 E 39 43 21 23 1014.2 - -
25/01:30pm 22.4 17.7 17.8 75 2.9 E 39 46 21 25 1014.4 - -
25/01:00pm 22.1 16.0 17.7 76 2.7 E 46 54 25 29 1014.5 - -
25/12:30pm 21.5 14.7 16.9 75 2.8 E 48 57 26 31 1014.5 - -
25/12:00pm 21.6 14.9 17.0 75 2.8 E 48 56 26 30 1015.8 1015.7 -
25/11:30am 21.1 14.4 17.1 78 2.4 E 48 57 26 31 1015.6 - -
25/11:00am 21.5 15.5 16.9 75 2.8 E 44 52 24 28 1016.2 - -
25/10:30am 20.9 14.1 16.9 78 2.4 ESE 48 56 26 30 1016.3 - -
25/10:00am 20.5 13.7 16.7 79 2.3 E 48 57 26 31 1016.6 - -
25/09:30am 20.0 12.3 16.4 80 2.2 ESE 52 59 28 32 1017.0 - -
25/09:00am 20.0 12.7 17.4 85 1.6 ESE 52 59 28 32 1016.3 1016.2 -
25/08:30am 19.4 11.7 17.4 88 1.2 ESE 54 61 29 33 1016.1 - -
25/08:00am 18.6 10.8 17.1 91 0.9 ESE 54 61 29 33 1016.4 - -
25/07:30am 18.2 11.1 16.9 92 0.8 E 50 61 27 33 1016.9 - -
25/07:00am 18.4 12.3 16.6 89 1.1 E 44 52 24 28 1017.1 - -
25/06:30am 18.7 13.0 17.2 91 0.9 ESE 43 50 23 27 1016.5 - -
25/06:00am 18.5 14.2 16.8 90 1.0 ESE 35 39 19 21 1017.0 1016.9 -
25/05:30am 18.2 12.6 16.4 89 1.1 E 41 46 22 25 1016.0 - -
25/05:13am 18.9 12.9 16.5 86 1.4 E 43 46 23 25 1015.9 - -
25/05:00am 19.6 14.0 16.6 83 1.8 ESE 41 46 22 25 1015.6 - -
25/04:30am 20.5 15.8 16.9 80 2.2 ESE 37 44 20 24 1015.4 - -
25/04:00am 20.6 15.5 17.6 83 1.8 ESE 41 50 22 27 1015.0 - -
25/03:30am 19.5 14.8 16.9 85 1.6 ESE 37 44 20 24 1015.2 - -
25/03:00am 19.4 14.4 16.2 82 1.9 ESE 37 43 20 23 1015.7 1015.6 -
25/02:30am 19.4 15.3 15.9 80 2.1 ESE 32 39 17 21 1016.0 - -
25/02:00am 20.3 16.2 16.5 79 2.3 ESE 33 41 18 22 1015.6 - -
25/01:30am 20.1 15.5 17.1 83 1.8 ESE 37 43 20 23 1015.6 - -
25/01:00am 19.9 15.5 17.5 86 1.5 ESE 37 43 20 23 1015.7 - -
25/12:30am 19.2 14.2 17.0 87 1.3 ESE 39 48 21 26 1015.4 - -
25/12:00am 19.1 14.4 16.9 87 1.3 E 37 44 20 24 1015.9 1015.8 -
 
Date/Time
WST
Temp
°C
App
Temp
°C
Dew
Point
Rel
Hum
%
Delta-T
°C
Wind Press
QNH
hPa
Press
MSL
hPa
Rain
since 9 am
mm
Dir
 
Spd
km/h
Gust
km/h
Spd
kts
Gust
kts
24/11:30pm 19.0 15.0 16.6 86 1.4 ESE 33 37 18 20 1016.4 - -
24/11:00pm 20.3 17.1 16.3 78 2.4 E 28 33 15 18 1017.5 - -
24/10:30pm 20.9 16.5 16.7 77 2.5 ESE 35 41 19 22 1016.3 - -
24/10:00pm 20.5 16.0 16.5 78 2.4 ESE 35 41 19 22 1016.1 - -
24/09:30pm 20.7 17.8 17.1 80 2.2 ESE 28 35 15 19 1016.4 - -
24/09:00pm 20.2 16.4 16.6 80 2.2 ESE 32 37 17 20 1016.5 1016.4 -
24/08:30pm 22.0 17.9 16.5 71 3.3 ESE 33 39 18 21 1016.1 - -
24/08:00pm 21.8 17.8 16.7 73 3.1 SE 33 37 18 20 1016.2 - -
24/07:30pm 21.3 17.5 17.1 77 2.6 SE 33 39 18 21 1015.8 - -
24/07:00pm 21.1 17.3 17.1 78 2.4 SE 33 39 18 21 1015.5 - -
24/06:30pm 21.2 18.1 17.4 79 2.3 SE 30 32 16 17 1015.3 - -
24/06:00pm 21.3 18.1 17.3 78 2.5 SE 30 33 16 18 1015.2 1015.1 -
24/05:30pm 21.4 17.7 17.0 76 2.7 SE 32 37 17 20 1014.8 - -
24/05:00pm 21.4 17.9 17.4 78 2.5 SE 32 35 17 19 1014.5 - -
24/04:30pm 21.5 18.6 17.9 80 2.2 SE 30 33 16 18 1014.2 - -
24/04:00pm 21.7 18.2 17.5 77 2.6 SE 32 37 17 20 1013.8 - -
24/03:30pm 21.8 18.0 16.7 73 3.1 SE 32 35 17 19 1013.7 - -
24/03:00pm 21.6 18.4 17.2 76 2.7 SE 30 35 16 19 1014.0 1013.9 -
24/02:30pm 21.2 17.4 17.2 78 2.4 SE 33 39 18 21 1013.9 - -
24/02:00pm 21.1 18.4 17.5 80 2.2 SSE 28 33 15 18 1014.6 - -

Other Formats:

Comma delimited format used in spreadsheet applications
http://www.bom.gov.au/fwo/IDW60801/IDW60801.94310.axf

JavaScript Object Notation format (JSON) in row-major order
http://www.bom.gov.au/fwo/IDW60801/IDW60801.94310.json